sensor_id;sensor_type;location;lat;lon;timestamp;pressure;altitude;pressure_sealevel;temperature;humidity
46382;BME280;66809;52.974;-2.514;2023-09-18T00:01:40;995.5625477592363;;;17.475407953108537;44.643857508830166
46382;BME280;66809;52.974;-2.514;2023-09-18T00:03:40;995.5339554180072;;;17.480600804546654;44.6220119402135
46382;BME280;66809;52.974;-2.514;2023-09-18T00:05:40;995.5068147682209;;;17.465337971234952;44.608975420945676
46382;BME280;66809;52.974;-2.514;2023-09-18T00:07:40;995.4810064681133;;;17.466257450825587;44.609144891806984
46382;BME280;66809;52.974;-2.514;2023-09-18T00:09:39;995.4559979181583;;;17.46332011203789;44.60751198232512
46382;BME280;66809;52.974;-2.514;2023-09-18T00:11:40;995.4300400957884;;;17.457475454004143;44.61103330170835
46382;BME280;66809;52.974;-2.514;2023-09-18T00:13:40;995.4037227854035;;;17.438807149183113;44.61644671625706
46382;BME280;66809;52.974;-2.514;2023-09-18T00:15:40;995.3798212709069;;;17.424707492338904;44.61162811078687
46382;BME280;66809;52.974;-2.514;2023-09-18T00:17:40;995.3587398075603;;;17.406650188578226;44.61007121793117
46382;BME280;66809;52.974;-2.514;2023-09-18T00:19:39;995.336983962223;;;17.402796981653992;44.6069396954765
46382;BME280;66809;52.974;-2.514;2023-09-18T00:21:40;995.3138453960539;;;17.388949418873928;44.59764890676922
46382;BME280;66809;52.974;-2.514;2023-09-18T00:23:40;995.2893518440789;;;17.36438487437715;44.58626872556091
46382;BME280;66809;52.974;-2.514;2023-09-18T00:25:40;995.2645764382409;;;17.34838863317571;44.57936989145882
46382;BME280;66809;52.974;-2.514;2023-09-18T00:27:40;995.2383293104084;;;17.33931377101159;44.57079141741211
46382;BME280;66809;52.974;-2.514;2023-09-18T00:29:40;995.2109514800266;;;17.33811579328722;44.56369637511932
46382;BME280;66809;52.974;-2.514;2023-09-18T00:31:40;995.1833509665533;;;17.336195181979196;44.55550580744812
46382;BME280;66809;52.974;-2.514;2023-09-18T00:33:40;995.1574159887624;;;17.33145127253581;44.541346525675216
46382;BME280;66809;52.974;-2.514;2023-09-18T00:35:40;995.1322054379917;;;17.331612110008084;44.53543436104352
46382;BME280;66809;52.974;-2.514;2023-09-18T00:37:40;995.1067410275538;;;17.32715388429508;44.52525195902909
46382;BME280;66809;52.974;-2.514;2023-09-18T00:39:41;995.079177855534;;;17.330950663542648;44.51298085470262
46382;BME280;66809;52.974;-2.514;2023-09-18T00:41:40;995.052182641964;;;17.323431459972532;44.496617007061936
46382;BME280;66809;52.974;-2.514;2023-09-18T00:43:40;995.0259934141848;;;17.306971838011588;44.480033879901946
46382;BME280;66809;52.974;-2.514;2023-09-18T00:45:42;994.9987021513442;;;17.28147576185111;44.466533223949206
46382;BME280;66809;52.974;-2.514;2023-09-18T00:47:40;994.9693290396107;;;17.255820051580667;44.45333189274429
46382;BME280;66809;52.974;-2.514;2023-09-18T00:49:42;994.9381229659123;;;17.23836656050874;44.439317587630036
46382;BME280;66809;52.974;-2.514;2023-09-18T00:51:40;994.906420950522;;;17.215661432426863;44.4304506706911
46382;BME280;66809;52.974;-2.514;2023-09-18T00:53:43;994.8767561811309;;;17.192343429638232;44.43367884596887
46382;BME280;66809;52.974;-2.514;2023-09-18T00:55:40;994.8477958945213;;;17.15357726046351;44.433919951582965
46382;BME280;66809;52.974;-2.514;2023-09-18T00:57:40;994.8195604726145;;;17.126219961012477;44.43337477085445
46382;BME280;66809;52.974;-2.514;2023-09-18T00:59:40;994.7919828448449;;;17.095067052124993;44.44276009455631
46382;BME280;66809;52.974;-2.514;2023-09-18T01:01:40;994.7668162585381;;;17.07909293520658;44.45534387443421
46382;BME280;66809;52.974;-2.514;2023-09-18T01:03:40;994.7441429543612;;;17.04771506292149;44.464169880194
46382;BME280;66809;52.974;-2.514;2023-09-18T01:05:40;994.72168901686;;;17.026661672121;44.463578611783355
46382;BME280;66809;52.974;-2.514;2023-09-18T01:07:40;994.6988218584858;;;17.000168164472118;44.45515095100712
46382;BME280;66809;52.974;-2.514;2023-09-18T01:09:40;994.6761318041138;;;16.984545280792783;44.44267396140401
46382;BME280;66809;52.974;-2.514;2023-09-18T01:11:45;994.6550433004246;;;16.96819375663633;44.423656600826256
46382;BME280;66809;52.974;-2.514;2023-09-18T01:13:45;994.6356531930101;;;16.968203396532658;44.400575311263445
46382;BME280;66809;52.974;-2.514;2023-09-18T01:15:42;994.6125805212828;;;16.951703013239506;44.37889396620816
46382;BME280;66809;52.974;-2.514;2023-09-18T01:17:41;994.5867805461426;;;16.953479596682175;44.35365154960946
46382;BME280;66809;52.974;-2.514;2023-09-18T01:19:41;994.5610281166796;;;16.947597754615202;44.3227562229522
46382;BME280;66809;52.974;-2.514;2023-09-18T01:21:40;994.5358093969397;;;16.939390770614214;44.290874897771374
46382;BME280;66809;52.974;-2.514;2023-09-18T01:23:40;994.5102325277884;;;16.94326199647251;44.248974352900454
46382;BME280;66809;52.974;-2.514;2023-09-18T01:25:40;994.4854041257289;;;16.944385561490105;44.19951853953332
46382;BME280;66809;52.974;-2.514;2023-09-18T01:27:40;994.4602985080371;;;16.923742690605845;44.14566253259693
46382;BME280;66809;52.974;-2.514;2023-09-18T01:29:40;994.4357516650066;;;16.907422405766106;44.08871687315252
46382;BME280;66809;52.974;-2.514;2023-09-18T01:31:40;994.413489169939;;;16.889085486485914;44.04843956650503
46382;BME280;66809;52.974;-2.514;2023-09-18T01:33:40;994.3890461112675;;;16.85823580262667;44.0246467846864
46382;BME280;66809;52.974;-2.514;2023-09-18T01:35:40;994.3650314216625;;;16.83260175950296;43.99053069106481
46382;BME280;66809;52.974;-2.514;2023-09-18T01:37:40;994.3408817270742;;;16.8155648572011;43.9672231509414
46382;BME280;66809;52.974;-2.514;2023-09-18T01:39:41;994.3174287802469;;;16.78459277858471;43.958098906585185
46382;BME280;66809;52.974;-2.514;2023-09-18T01:41:41;994.294576749636;;;16.76125631660649;43.95563629475657
46382;BME280;66809;52.974;-2.514;2023-09-18T01:43:40;994.273779244893;;;16.73919105159925;43.96063607839739
46382;BME280;66809;52.974;-2.514;2023-09-18T01:45:40;994.2542269193818;;;16.716403162952886;43.971187687170634
46382;BME280;66809;52.974;-2.514;2023-09-18T01:47:40;994.2333864011385;;;16.69990094906391;43.98481462617404
46382;BME280;66809;52.974;-2.514;2023-09-18T01:49:40;994.2131767047961;;;16.68881002962657;43.992107618055556
46382;BME280;66809;52.974;-2.514;2023-09-18T01:51:39;994.1929517230649;;;16.675948016743185;43.993968387159754
46382;BME280;66809;52.974;-2.514;2023-09-18T01:53:40;994.1691843263941;;;16.672797043762397;43.989494743075674
46382;BME280;66809;52.974;-2.514;2023-09-18T01:55:40;994.1439774350754;;;16.668461304967636;43.975395080132394
46382;BME280;66809;52.974;-2.514;2023-09-18T01:57:41;994.117789991097;;;16.648106028093867;43.963574264810305
46382;BME280;66809;52.974;-2.514;2023-09-18T01:59:40;994.0912247904495;;;16.64530559520399;43.93964248948766
46382;BME280;66809;52.974;-2.514;2023-09-18T02:01:40;994.0621939740246;;;16.629693046883713;43.91778535823299
46382;BME280;66809;52.974;-2.514;2023-09-18T02:03:39;994.0291607243739;;;16.623069424372055;43.89820466590382
46382;BME280;66809;52.974;-2.514;2023-09-18T02:05:40;993.9944863065231;;;16.621468189964293;43.88219850233577
46382;BME280;66809;52.974;-2.514;2023-09-18T02:07:40;993.9574274497129;;;16.614063129039785;43.86906616816477
46382;BME280;66809;52.974;-2.514;2023-09-18T02:09:40;993.9192184230657;;;16.60287085880651;43.86476619362557
46382;BME280;66809;52.974;-2.514;2023-09-18T02:11:42;993.8807494654856;;;16.59765886568279;43.860966107892914
46382;BME280;66809;52.974;-2.514;2023-09-18T02:13:40;993.8417033507874;;;16.587290042804625;43.85607430043767
46382;BME280;66809;52.974;-2.514;2023-09-18T02:15:40;993.8047927337271;;;16.58657946884535;43.85277206905375
46382;BME280;66809;52.974;-2.514;2023-09-18T02:17:40;993.7707891709695;;;16.571793243772877;43.85155402323835
46382;BME280;66809;52.974;-2.514;2023-09-18T02:19:40;993.7375760152158;;;16.568253361044203;43.84954709201961
46382;BME280;66809;52.974;-2.514;2023-09-18T02:21:40;993.7037361498914;;;16.56747555867845;43.844756965525306
46382;BME280;66809;52.974;-2.514;2023-09-18T02:23:40;993.6689650005053;;;16.552821394679597;43.84045707320464
46382;BME280;66809;52.974;-2.514;2023-09-18T02:25:40;993.6309851729748;;;16.53190966506547;43.84082034839273
46382;BME280;66809;52.974;-2.514;2023-09-18T02:27:40;993.5913823643045;;;16.53010072930107;43.852815492799444
46382;BME280;66809;52.974;-2.514;2023-09-18T02:29:40;993.5491588218341;;;16.525151595959265;43.86481478306929
46382;BME280;66809;52.974;-2.514;2023-09-18T02:31:40;993.5047341001779;;;16.52264813880976;43.86360558802559
46382;BME280;66809;52.974;-2.514;2023-09-18T02:33:41;993.460539193459;;;16.520021788677315;43.854546770443086
46382;BME280;66809;52.974;-2.514;2023-09-18T02:35:40;993.4155494572108;;;16.510289207093688;43.85550693722042
46382;BME280;66809;52.974;-2.514;2023-09-18T02:37:40;993.3685803534031;;;16.507004310241978;43.8575686229679
46382;BME280;66809;52.974;-2.514;2023-09-18T02:39:40;993.3181072114961;;;16.50293745441023;43.851307651001534
46382;BME280;66809;52.974;-2.514;2023-09-18T02:41:40;993.2662929066778;;;16.499072261457513;43.842666415439076
46382;BME280;66809;52.974;-2.514;2023-09-18T02:43:40;993.2134292959435;;;16.500237857139997;43.82966162507562
46382;BME280;66809;52.974;-2.514;2023-09-18T02:45:40;993.1593552368438;;;16.501028225613148;43.80990848157909
46382;BME280;66809;52.974;-2.514;2023-09-18T02:47:40;993.1067189395653;;;16.494045149040815;43.79175355831459
46382;BME280;66809;52.974;-2.514;2023-09-18T02:49:40;993.0525799122339;;;16.490095406919686;43.77836786912974
46382;BME280;66809;52.974;-2.514;2023-09-18T02:51:40;992.9978833447167;;;16.506504350595602;43.76557101231432
46382;BME280;66809;52.974;-2.514;2023-09-18T02:53:40;992.9449558170509;;;16.514831843097813;43.745934687211374
46382;BME280;66809;52.974;-2.514;2023-09-18T02:55:40;992.8941295538112;;;16.51585932689079;43.73672276949067
46382;BME280;66809;52.974;-2.514;2023-09-18T02:57:40;992.8448966964684;;;16.52645263463192;43.72115929323203
46382;BME280;66809;52.974;-2.514;2023-09-18T02:59:40;992.7979789150038;;;16.525166516333847;43.70301168971049
46382;BME280;66809;52.974;-2.514;2023-09-18T03:01:40;992.7537182929574;;;16.529191359144587;43.68625346642636
46382;BME280;66809;52.974;-2.514;2023-09-18T03:03:40;992.7120569342;;;16.532384345545395;43.67157645485805
46382;BME280;66809;52.974;-2.514;2023-09-18T03:05:40;992.670193585722;;;16.535081578020126;43.65957749948702
46382;BME280;66809;52.974;-2.514;2023-09-18T03:07:40;992.6295364100899;;;16.536862927606048;43.65105033988903
46382;BME280;66809;52.974;-2.514;2023-09-18T03:09:40;992.5901332284088;;;16.531602905712187;43.63933077046647
46382;BME280;66809;52.974;-2.514;2023-09-18T03:11:40;992.5494618149006;;;16.525149712621438;43.6316743052847
46382;BME280;66809;52.974;-2.514;2023-09-18T03:13:43;992.5071147551114;;;16.516220118834006;43.62521421273064
46382;BME280;66809;52.974;-2.514;2023-09-18T03:15:41;992.4648865613842;;;16.510271078478215;43.610911701310584
46382;BME280;66809;52.974;-2.514;2023-09-18T03:17:40;992.4225256835464;;;16.504655775357016;43.58310652798741
46382;BME280;66809;52.974;-2.514;2023-09-18T03:19:40;992.3797817893083;;;16.488354736960567;43.56273005368269
46382;BME280;66809;52.974;-2.514;2023-09-18T03:21:40;992.3385573535342;;;16.472288972431265;43.550590234571786
46382;BME280;66809;52.974;-2.514;2023-09-18T03:23:40;992.2996996482922;;;16.472497191952076;43.550370272733154
46382;BME280;66809;52.974;-2.514;2023-09-18T03:25:40;992.2636229364883;;;16.468175894769676;43.54906126101168
46382;BME280;66809;52.974;-2.514;2023-09-18T03:27:40;992.2307348851848;;;16.466773181704305;43.54289349159275
46382;BME280;66809;52.974;-2.514;2023-09-18T03:29:40;992.2005371897828;;;16.463655818507537;43.54050557417611
46382;BME280;66809;52.974;-2.514;2023-09-18T03:31:40;992.170141351152;;;16.453448510951475;43.531775130587356
46382;BME280;66809;52.974;-2.514;2023-09-18T03:33:40;992.1424966440997;;;16.46752101088505;43.52086865482372
46382;BME280;66809;52.974;-2.514;2023-09-18T03:35:48;992.1158883186903;;;16.471386202809096;43.51006219635677
46382;BME280;66809;52.974;-2.514;2023-09-18T03:37:39;992.0909236323482;;;16.464447504035704;43.49092087014196
46382;BME280;66809;52.974;-2.514;2023-09-18T03:39:40;992.0691884025957;;;16.46899619530579;43.4698938960781
46382;BME280;66809;52.974;-2.514;2023-09-18T03:41:40;992.0500022218043;;;16.47275215451199;43.445096739302805
46382;BME280;66809;52.974;-2.514;2023-09-18T03:43:40;992.0318862333287;;;16.475054464236614;43.422480721637164
46382;BME280;66809;52.974;-2.514;2023-09-18T03:45:40;992.0140794396647;;;16.483404274042552;43.40314279953637
46382;BME280;66809;52.974;-2.514;2023-09-18T03:47:41;991.995568846168;;;16.486252752053723;43.37933854960388
46382;BME280;66809;52.974;-2.514;2023-09-18T03:49:40;991.978517713233;;;16.48758876419196;43.3590028008443
46382;BME280;66809;52.974;-2.514;2023-09-18T03:51:40;991.9622173142875;;;16.47241263706064;43.32714704114356
46382;BME280;66809;52.974;-2.514;2023-09-18T03:53:40;991.9457917372561;;;16.460522446774974;43.30520864668645
46382;BME280;66809;52.974;-2.514;2023-09-18T03:55:39;991.9290663352754;;;16.463234640273768;43.284753901047445
46382;BME280;66809;52.974;-2.514;2023-09-18T03:57:42;991.913734225475;;;16.45326076094152;43.26727279185572
46382;BME280;66809;52.974;-2.514;2023-09-18T03:59:40;991.8980356510866;;;16.451479934614472;43.256445803369346
46382;BME280;66809;52.974;-2.514;2023-09-18T04:01:40;991.8840645887014;;;16.4454636781479;43.238178751601104
46382;BME280;66809;52.974;-2.514;2023-09-18T04:03:40;991.870708812778;;;16.443430774311313;43.214253817191704
46382;BME280;66809;52.974;-2.514;2023-09-18T04:05:40;991.8580127575765;;;16.436607871158778;43.19291087018303
46382;BME280;66809;52.974;-2.514;2023-09-18T04:07:40;991.8473578602014;;;16.429995034926407;43.15887051726489
46382;BME280;66809;52.974;-2.514;2023-09-18T04:09:40;991.837405704701;;;16.438850059181693;43.12255306568177
46382;BME280;66809;52.974;-2.514;2023-09-18T04:11:40;991.8305161921952;;;16.430044692171432;43.08860538255496
46382;BME280;66809;52.974;-2.514;2023-09-18T04:13:40;991.8257915407848;;;16.42064038421416;43.066546793701576
46382;BME280;66809;52.974;-2.514;2023-09-18T04:15:40;991.8215819087171;;;16.411079322157363;43.05381423477699
46382;BME280;66809;52.974;-2.514;2023-09-18T04:17:40;991.8172179866284;;;16.404602011718595;43.05755280813152
46382;BME280;66809;52.974;-2.514;2023-09-18T04:19:40;991.8125582363776;;;16.391746626054893;43.061681816487656
46382;BME280;66809;52.974;-2.514;2023-09-18T04:21:39;991.8074274744704;;;16.38282418698018;43.059857383406325
46382;BME280;66809;52.974;-2.514;2023-09-18T04:23:40;991.8027712465001;;;16.365120523912005;43.05267081826717
46382;BME280;66809;52.974;-2.514;2023-09-18T04:25:40;991.7979178972505;;;16.361018803185324;43.047175179178886
46382;BME280;66809;52.974;-2.514;2023-09-18T04:27:40;991.7930297359546;;;16.341043548569104;43.03522754862135
46382;BME280;66809;52.974;-2.514;2023-09-18T04:29:40;991.7880817743954;;;16.31667664549324;43.02604632017494
46382;BME280;66809;52.974;-2.514;2023-09-18T04:31:40;991.7835925836129;;;16.305800109705668;43.03183105169291
46382;BME280;66809;52.974;-2.514;2023-09-18T04:33:40;991.778004250794;;;16.284128077897737;43.0360335381545
46382;BME280;66809;52.974;-2.514;2023-09-18T04:35:40;991.7715886526421;;;16.268058770584087;43.03388331288269
46382;BME280;66809;52.974;-2.514;2023-09-18T04:37:40;991.7660562518397;;;16.24130377149958;43.04192802499562
46382;BME280;66809;52.974;-2.514;2023-09-18T04:39:40;991.7621800915507;;;16.211638598709293;43.06284548478031
46382;BME280;66809;52.974;-2.514;2023-09-18T04:41:40;991.7569486682283;;;16.182860916163982;43.087646229010936
46382;BME280;66809;52.974;-2.514;2023-09-18T04:43:40;991.752034782259;;;16.167598262410174;43.109582288216565
46382;BME280;66809;52.974;-2.514;2023-09-18T04:45:40;991.7477242377471;;;16.143371878387118;43.125671967580004
46382;BME280;66809;52.974;-2.514;2023-09-18T04:47:39;991.7454034808159;;;16.121223808658105;43.141369237127954
46382;BME280;66809;52.974;-2.514;2023-09-18T04:49:40;991.7434049084053;;;16.10939778720225;43.151120054393644
46382;BME280;66809;52.974;-2.514;2023-09-18T04:51:40;991.741642002801;;;16.10148736519359;43.16882135566546
46382;BME280;66809;52.974;-2.514;2023-09-18T04:53:40;991.7387954024503;;;16.093501329039643;43.17373481146277
46382;BME280;66809;52.974;-2.514;2023-09-18T04:55:40;991.7357771127148;;;16.079170812103847;43.174281765443396
46382;BME280;66809;52.974;-2.514;2023-09-18T04:57:40;991.7316485324025;;;16.065322141141102;43.16948212786838
46382;BME280;66809;52.974;-2.514;2023-09-18T04:59:40;991.7264045354555;;;16.043910627790066;43.16160975987241
46382;BME280;66809;52.974;-2.514;2023-09-18T05:01:40;991.7188995419708;;;16.026087551830404;43.15274877784389
46382;BME280;66809;52.974;-2.514;2023-09-18T05:03:40;991.7099619816694;;;16.010210976893923;43.15321066374448
46382;BME280;66809;52.974;-2.514;2023-09-18T05:05:40;991.7017092270609;;;15.989869484506018;43.14504678743585
46382;BME280;66809;52.974;-2.514;2023-09-18T05:07:40;991.6926811891813;;;15.974558788149839;43.14154779641334
46382;BME280;66809;52.974;-2.514;2023-09-18T05:09:40;991.6840676885819;;;15.951197364176334;43.13626896780942
46382;BME280;66809;52.974;-2.514;2023-09-18T05:11:40;991.6735253745287;;;15.942236137197314;43.1180094065362
46382;BME280;66809;52.974;-2.514;2023-09-18T05:13:40;991.6619995573401;;;15.926016896243821;43.095089416714444
46382;BME280;66809;52.974;-2.514;2023-09-18T05:15:40;991.65036958337;;;15.905573519420162;43.06573195118652
46382;BME280;66809;52.974;-2.514;2023-09-18T05:17:42;991.6383126914574;;;15.887186437354947;43.02606609522736
46382;BME280;66809;52.974;-2.514;2023-09-18T05:19:40;991.6277908875112;;;15.871827175013687;42.978874687343605
46382;BME280;66809;52.974;-2.514;2023-09-18T05:21:40;991.6175038959843;;;15.853549354198448;42.93267892281299
46382;BME280;66809;52.974;-2.514;2023-09-18T05:23:40;991.606556157696;;;15.833809503146819;42.88876334533157
46382;BME280;66809;52.974;-2.514;2023-09-18T05:25:42;991.5953424162228;;;15.8113052178529;42.845733449429616
46382;BME280;66809;52.974;-2.514;2023-09-18T05:27:40;991.5830904207892;;;15.79519582730242;42.80766183899427
46382;BME280;66809;52.974;-2.514;2023-09-18T05:29:40;991.5697436221776;;;15.786075021104086;42.77405167743389
46382;BME280;66809;52.974;-2.514;2023-09-18T05:31:39;991.5567546593518;;;15.772990556534653;42.7273665934761
46382;BME280;66809;52.974;-2.514;2023-09-18T05:33:40;991.5426521388565;;;15.743623774462586;42.68176952654913
46382;BME280;66809;52.974;-2.514;2023-09-18T05:35:41;991.5299629045566;;;15.718737854647202;42.62856202754045
46382;BME280;66809;52.974;-2.514;2023-09-18T05:37:41;991.5167898193203;;;15.708207197277671;42.56565811343406
46382;BME280;66809;52.974;-2.514;2023-09-18T05:39:40;991.5037793571156;;;15.69756121888845;42.48552296922253
46382;BME280;66809;52.974;-2.514;2023-09-18T05:41:41;991.491516023867;;;15.69548115507791;42.39695334466299
46382;BME280;66809;52.974;-2.514;2023-09-18T05:43:40;991.4778022670073;;;15.681062438740373;42.309964843336815
46382;BME280;66809;52.974;-2.514;2023-09-18T05:45:40;991.4644439693354;;;15.667282310084278;42.219207489279725
46382;BME280;66809;52.974;-2.514;2023-09-18T05:47:40;991.4506952493185;;;15.655617291054389;42.11913230950199
46382;BME280;66809;52.974;-2.514;2023-09-18T05:49:40;991.4366624598268;;;15.641156550425658;42.02311154590821
46382;BME280;66809;52.974;-2.514;2023-09-18T05:51:40;991.4238084493355;;;15.618314738383102;41.93035333591941
46382;BME280;66809;52.974;-2.514;2023-09-18T05:53:40;991.4119030346193;;;15.604360469811395;41.84551963745337
46382;BME280;66809;52.974;-2.514;2023-09-18T05:55:39;991.4000001732036;;;15.577786796451631;41.7563165893712
46382;BME280;66809;52.974;-2.514;2023-09-18T05:57:40;991.3871941451271;;;15.574140099069622;41.66790280629619
46382;BME280;66809;52.974;-2.514;2023-09-18T05:59:40;991.3743106360522;;;15.557807349623266;41.56581711865127
46382;BME280;66809;52.974;-2.514;2023-09-18T06:01:40;991.3617327534497;;;15.552085231992281;41.463929893476205
46382;BME280;66809;52.974;-2.514;2023-09-18T06:03:40;991.349533575857;;;15.533721969344619;41.367006164092
46382;BME280;66809;52.974;-2.514;2023-09-18T06:05:40;991.3372361571151;;;15.526722668787597;41.27721730948435
46382;BME280;66809;52.974;-2.514;2023-09-18T06:07:40;991.3251806274842;;;15.51656344924408;41.19228350550333
46382;BME280;66809;52.974;-2.514;2023-09-18T06:09:40;991.3122105121583;;;15.505247581021106;41.09427357947525
46382;BME280;66809;52.974;-2.514;2023-09-18T06:11:40;991.2993646372355;;;15.488035471029464;41.010245563655985
46382;BME280;66809;52.974;-2.514;2023-09-18T06:13:40;991.2866376962746;;;15.484675040842069;40.92413846512193
46382;BME280;66809;52.974;-2.514;2023-09-18T06:15:40;991.2728126648724;;;15.48120857120454;40.840523074551214
46382;BME280;66809;52.974;-2.514;2023-09-18T06:17:41;991.2588966099737;;;15.471394443383456;40.76314994699078
46382;BME280;66809;52.974;-2.514;2023-09-18T06:19:39;991.2427552706332;;;15.457328658919936;40.6863891226374
46382;BME280;66809;52.974;-2.514;2023-09-18T06:21:40;991.2259669385876;;;15.445882158498092;40.60836001255406
46382;BME280;66809;52.974;-2.514;2023-09-18T06:23:40;991.2094504466617;;;15.430780593051475;40.53648954512251
46382;BME280;66809;52.974;-2.514;2023-09-18T06:25:41;991.1933789303337;;;15.404959781662832;40.46889311400391
46382;BME280;66809;52.974;-2.514;2023-09-18T06:27:41;991.1772871719699;;;15.383214164711026;40.40316925323789
46382;BME280;66809;52.974;-2.514;2023-09-18T06:29:40;991.162703053247;;;15.362628092005185;40.33160300899591
46382;BME280;66809;52.974;-2.514;2023-09-18T06:31:40;991.1500992589156;;;15.340353129647687;40.26301491624206
46382;BME280;66809;52.974;-2.514;2023-09-18T06:33:40;991.1391872962192;;;15.324271414852632;40.20819601312614
46382;BME280;66809;52.974;-2.514;2023-09-18T06:35:40;991.1263212477139;;;15.310102539673824;40.17662998132548
46382;BME280;66809;52.974;-2.514;2023-09-18T06:37:40;991.1147840057572;;;15.302966529242088;40.14416267368605
46382;BME280;66809;52.974;-2.514;2023-09-18T06:39:40;991.1029476940621;;;15.295838912753103;40.11565331919478
46382;BME280;66809;52.974;-2.514;2023-09-18T06:41:40;991.0901659183736;;;15.281941190737324;40.08229411984017
46382;BME280;66809;52.974;-2.514;2023-09-18T06:43:40;991.0774738733472;;;15.257204287686669;40.060544141031315
46382;BME280;66809;52.974;-2.514;2023-09-18T06:45:40;991.0648924088878;;;15.23403863741534;40.05542677283659
46382;BME280;66809;52.974;-2.514;2023-09-18T06:47:40;991.0523321666362;;;15.218164037413912;40.06942039658368
46382;BME280;66809;52.974;-2.514;2023-09-18T06:49:40;991.0417227940338;;;15.199216416386525;40.083314360656246
46382;BME280;66809;52.974;-2.514;2023-09-18T06:51:40;991.0310053783738;;;15.189005065777993;40.09997956071747
46382;BME280;66809;52.974;-2.514;2023-09-18T06:53:40;991.0214012095491;;;15.185535408736577;40.122684603210736
46382;BME280;66809;52.974;-2.514;2023-09-18T06:55:40;991.0096761612356;;;15.203454479395978;40.14578513335328
46382;BME280;66809;52.974;-2.514;2023-09-18T06:57:40;990.997585853761;;;15.207687025104972;40.16591185463514
46382;BME280;66809;52.974;-2.514;2023-09-18T06:59:40;990.9865871728581;;;15.220383808737921;40.196036216682415
46382;BME280;66809;52.974;-2.514;2023-09-18T07:01:40;990.9752252830397;;;15.219005223809434;40.23330329948533
46382;BME280;66809;52.974;-2.514;2023-09-18T07:03:39;990.9646191109745;;;15.21486163777799;40.26273079340083
46382;BME280;66809;52.974;-2.514;2023-09-18T07:05:40;990.9532529501513;;;15.211995237269507;40.287595763140665
46382;BME280;66809;52.974;-2.514;2023-09-18T07:07:40;990.9414494771976;;;15.222473752821603;40.313559388462735
46382;BME280;66809;52.974;-2.514;2023-09-18T07:09:40;990.9290502653814;;;15.223501181938133;40.36281265611229
46382;BME280;66809;52.974;-2.514;2023-09-18T07:11:40;990.9171638459325;;;15.240766034155923;40.40888118986539
46382;BME280;66809;52.974;-2.514;2023-09-18T07:13:40;990.9053706695827;;;15.24592693478275;40.45088142455927